Time;durP1;ratioP1;P1;durP2;ratioP2;P2;SDS_P1;SDS_P2;PMS_P1;PMS_P2;Temp;Humidity;BMP_temperature;BMP_pressure;BME280_temperature;BME280_humidity;BME280_pressure;Samples;Min_cycle;Max_cycle;Signal;HPM_P1;HPM_P2
2023/01/05 00:04:29;;;;;;;19.10;12.13;;;7.80;99.90;;;;;;10445395;28;20057;-75
2023/01/05 00:09:29;;;;;;;17.50;11.33;;;7.70;99.90;;;;;;10444407;28;20056;-74
2023/01/05 00:25:19;;;;;;;17.13;10.67;;;7.80;99.90;;;;;;10444637;28;20033;-75
2023/01/05 00:30:23;;;;;;;18.03;10.93;;;7.70;99.90;;;;;;10444359;28;20037;-75
2023/01/05 00:35:24;;;;;;;28.37;11.47;;;7.80;99.90;;;;;;10432675;28;20073;-74
2023/01/05 00:40:24;;;;;;;16.60;10.23;;;7.80;99.90;;;;;;10442466;28;20111;-76
2023/01/05 00:45:25;;;;;;;18.43;10.67;;;7.80;99.90;;;;;;10444040;28;20048;-77
2023/01/05 00:50:25;;;;;;;17.13;11.03;;;7.80;99.90;;;;;;10443986;28;20036;-75
2023/01/05 00:55:26;;;;;;;16.70;9.70;;;7.90;99.90;;;;;;10434861;28;20443;-77
2023/01/05 01:00:27;;;;;;;16.17;10.00;;;8.00;99.90;;;;;;10440368;28;20457;-74
2023/01/05 01:05:27;;;;;;;15.87;10.63;;;8.00;99.90;;;;;;10443241;28;20571;-76
2023/01/05 01:10:28;;;;;;;16.53;10.83;;;8.00;99.90;;;;;;10430522;28;20033;-76
2023/01/05 01:15:28;;;;;;;17.80;11.23;;;8.00;99.90;;;;;;10457747;23;20067;-74
2023/01/05 01:20:29;;;;;;;11.37;8.20;;;8.00;99.90;;;;;;10444078;28;20033;-75
2023/01/05 01:25:29;;;;;;;8.63;6.80;;;8.00;99.90;;;;;;10433126;28;20040;-75
2023/01/05 01:30:30;;;;;;;9.13;6.50;;;8.00;99.90;;;;;;10442765;28;20025;-75
2023/01/05 01:35:31;;;;;;;11.53;6.77;;;8.00;99.90;;;;;;10443010;28;20044;-75
2023/01/05 01:40:43;;;;;;;10.23;7.07;;;8.00;99.90;;;;;;10429847;28;20086;-77
2023/01/05 01:45:44;;;;;;;9.87;6.03;;;8.00;99.90;;;;;;10441351;28;20662;-75
2023/01/05 01:50:53;;;;;;;10.27;6.53;;;8.00;99.90;;;;;;10437046;28;20033;-75
2023/01/05 01:55:56;;;;;;;9.50;6.50;;;8.00;99.90;;;;;;10441633;28;20503;-75
2023/01/05 02:01:01;;;;;;;10.93;6.83;;;8.00;99.90;;;;;;10442015;28;20033;-77
2023/01/05 02:06:02;;;;;;;9.35;5.57;;;8.00;99.90;;;;;;10437400;28;20139;-77
2023/01/05 02:11:21;;;;;;;14.97;8.13;;;8.10;99.90;;;;;;10436445;28;20029;-75
2023/01/05 02:16:51;;;;;;;7.10;5.33;;;8.20;99.90;;;;;;10440933;28;20140;-76
2023/01/05 02:22:17;;;;;;;6.47;4.77;;;8.20;99.90;;;;;;10433521;28;20033;-75
2023/01/05 02:27:42;;;;;;;7.50;4.63;;;8.30;99.90;;;;;;10431552;28;20040;-75
2023/01/05 02:33:15;;;;;;;6.20;4.20;;;8.30;99.90;;;;;;10430998;28;20041;-76
2023/01/05 02:38:41;;;;;;;5.83;4.17;;;8.40;99.90;;;;;;10439267;28;20538;-74
2023/01/05 02:43:44;;;;;;;5.90;3.85;;;8.40;99.90;;;;;;10432179;28;20120;-74
2023/01/05 02:48:47;;;;;;;4.77;3.23;;;8.40;99.90;;;;;;10448441;28;20025;-74
2023/01/05 02:54:19;;;;;;;6.27;4.03;;;8.50;99.90;;;;;;10449278;28;20391;-76
2023/01/05 02:59:30;;;;;;;6.47;4.00;;;8.50;99.90;;;;;;10438837;28;20111;-74
2023/01/05 03:04:38;;;;;;;6.30;4.53;;;8.50;99.90;;;;;;10436710;28;20099;-77
2023/01/05 03:09:41;;;;;;;10.37;6.70;;;8.40;99.90;;;;;;10441023;28;20029;-76
2023/01/05 03:14:47;;;;;;;13.83;9.23;;;8.30;99.90;;;;;;10444397;28;20497;-77
2023/01/05 03:19:49;;;;;;;16.02;10.30;;;8.30;99.90;;;;;;10447557;28;20078;-76
2023/01/05 03:35:33;;;;;;;12.13;8.47;;;8.20;99.90;;;;;;10446871;28;20037;-76
2023/01/05 03:40:37;;;;;;;17.60;11.43;;;8.10;99.90;;;;;;10446156;28;20032;-76
2023/01/05 03:45:43;;;;;;;17.93;12.73;;;8.10;99.90;;;;;;10445272;28;20028;-75
2023/01/05 03:50:44;;;;;;;12.57;9.13;;;8.10;99.90;;;;;;10431820;28;20033;-77
2023/01/05 03:55:44;;;;;;;16.33;11.73;;;8.20;99.90;;;;;;10440520;28;20028;-75
2023/01/05 04:00:45;;;;;;;12.77;8.50;;;8.20;99.90;;;;;;10445324;28;20031;-76
2023/01/05 04:05:46;;;;;;;10.17;6.60;;;8.20;99.90;;;;;;10444515;28;20079;-76
2023/01/05 04:10:46;;;;;;;9.80;5.67;;;8.20;99.90;;;;;;10448063;22;20137;-76
2023/01/05 04:15:47;;;;;;;8.03;5.17;;;8.20;99.90;;;;;;10356318;28;20533;-77
2023/01/05 04:20:47;;;;;;;10.27;5.87;;;8.20;99.90;;;;;;10341042;28;20368;-76
2023/01/05 04:25:48;;;;;;;9.83;5.10;;;8.20;99.90;;;;;;10322088;28;20034;-75
2023/01/05 04:30:50;;;;;;;8.73;4.93;;;8.20;99.90;;;;;;10321663;28;20053;-76
2023/01/05 04:35:51;;;;;;;6.00;3.93;;;8.10;99.90;;;;;;10322417;28;20046;-76
2023/01/05 04:40:52;;;;;;;10.00;5.53;;;8.10;99.90;;;;;;10324833;28;20760;-77
2023/01/05 04:45:52;;;;;;;5.30;3.73;;;8.00;99.90;;;;;;10356492;28;20040;-77
2023/01/05 04:50:54;;;;;;;7.03;3.50;;;8.00;99.90;;;;;;10331406;28;20164;-77
2023/01/05 04:55:55;;;;;;;6.83;3.93;;;8.00;99.90;;;;;;10351990;28;20173;-76
2023/01/05 05:00:55;;;;;;;6.73;4.37;;;8.00;99.90;;;;;;10334355;28;20091;-76
2023/01/05 05:05:56;;;;;;;6.57;3.90;;;8.00;99.90;;;;;;10333324;28;20030;-74
2023/01/05 05:10:56;;;;;;;8.03;5.07;;;8.00;99.90;;;;;;10331219;28;20371;-75
2023/01/05 05:15:57;;;;;;;7.27;4.90;;;8.00;99.90;;;;;;10324926;28;20493;-75
2023/01/05 05:20:58;;;;;;;9.80;5.90;;;8.00;99.90;;;;;;10341352;28;20030;-74
2023/01/05 05:25:58;;;;;;;11.30;6.50;;;8.00;99.90;;;;;;10338096;28;20038;-76
2023/01/05 05:30:59;;;;;;;10.00;6.03;;;8.00;99.90;;;;;;10330087;28;20657;-75
2023/01/05 05:36:00;;;;;;;15.03;7.93;;;8.00;99.90;;;;;;10323786;28;20045;-75
2023/01/05 05:41:00;;;;;;;13.60;9.10;;;8.00;99.90;;;;;;10349281;28;20052;-75
2023/01/05 05:46:01;;;;;;;13.73;8.43;;;8.00;99.90;;;;;;10359420;28;20033;-75
2023/01/05 05:51:02;;;;;;;12.90;8.73;;;8.00;99.90;;;;;;10360847;28;20117;-77
2023/01/05 05:56:03;;;;;;;13.00;7.80;;;7.90;99.90;;;;;;10359862;28;20036;-76
2023/01/05 06:01:03;;;;;;;14.97;9.50;;;7.90;99.90;;;;;;10360153;28;20037;-77
2023/01/05 06:06:04;;;;;;;14.23;6.67;;;8.00;99.90;;;;;;10360141;28;20087;-76
2023/01/05 06:11:05;;;;;;;7.70;3.93;;;8.00;99.90;;;;;;10360111;28;20058;-76
2023/01/05 06:16:06;;;;;;;6.07;3.40;;;8.00;99.90;;;;;;10368474;28;20026;-75
2023/01/05 06:21:07;;;;;;;5.63;3.77;;;7.90;99.90;;;;;;10367536;28;20034;-76
2023/01/05 06:26:08;;;;;;;12.83;5.57;;;7.70;99.90;;;;;;10367740;28;20052;-77
2023/01/05 06:31:08;;;;;;;13.20;6.23;;;7.60;99.90;;;;;;10367778;28;20096;-75
2023/01/05 06:36:09;;;;;;;13.97;6.07;;;7.50;99.90;;;;;;10368135;28;20121;-82
2023/01/05 06:41:10;;;;;;;1.83;0.43;;;7.30;99.90;;;;;;10365726;28;20049;-79
2023/01/05 06:46:10;;;;;;;0.00;0.00;;;7.00;99.90;;;;;;10366832;28;20022;-78
2023/01/05 06:51:11;;;;;;;0.00;0.00;;;6.80;99.90;;;;;;10367191;28;20026;-78
2023/01/05 06:56:11;;;;;;;0.20;0.20;;;6.90;99.90;;;;;;10367141;28;20375;-77
2023/01/05 07:01:12;;;;;;;2.40;1.20;;;6.90;99.90;;;;;;10366608;28;20032;-77
2023/01/05 07:06:14;;;;;;;2.03;1.93;;;7.00;99.90;;;;;;10366683;28;20068;-76
2023/01/05 07:11:14;;;;;;;2.20;1.77;;;7.10;99.90;;;;;;10365972;28;20143;-78
2023/01/05 07:16:16;;;;;;;3.03;1.10;;;7.10;99.90;;;;;;10365375;28;20397;-78
2023/01/05 07:21:17;;;;;;;0.00;0.00;;;7.00;99.90;;;;;;10366403;28;20025;-78
2023/01/05 07:26:17;;;;;;;0.00;0.00;;;7.10;99.90;;;;;;10364234;28;20029;-77
2023/01/05 07:31:18;;;;;;;0.00;0.00;;;7.10;99.90;;;;;;10365620;28;20048;-77
2023/01/05 07:36:19;;;;;;;0.10;0.10;;;7.10;99.90;;;;;;10360954;28;20139;-77
2023/01/05 07:41:19;;;;;;;0.47;0.47;;;7.10;99.90;;;;;;10365259;28;20025;-77
2023/01/05 07:46:20;;;;;;;0.73;0.73;;;7.10;99.90;;;;;;10365038;28;20036;-77
2023/01/05 07:51:21;;;;;;;0.97;0.20;;;7.10;99.90;;;;;;10364586;28;20038;-79
2023/01/05 07:56:21;;;;;;;0.00;0.00;;;7.10;99.90;;;;;;10364850;28;20442;-77
2023/01/05 08:01:22;;;;;;;0.00;0.00;;;7.00;99.90;;;;;;10364102;28;20034;-80
2023/01/05 08:06:23;;;;;;;4.47;1.60;;;7.00;99.90;;;;;;10351106;28;20034;-76
2023/01/05 08:11:24;;;;;;;0.03;0.03;;;7.00;99.90;;;;;;10364191;28;20138;-79
2023/01/05 08:16:26;;;;;;;1.17;0.50;;;7.00;99.90;;;;;;10456881;23;20063;-77
2023/01/05 08:21:26;;;;;;;0.00;0.00;;;7.10;99.90;;;;;;10433392;28;20388;-77
2023/01/05 08:26:27;;;;;;;2.23;1.33;;;7.10;99.90;;;;;;10444513;28;20033;-77
2023/01/05 08:31:29;;;;;;;0.13;0.13;;;7.10;99.90;;;;;;10446357;28;20029;-77
2023/01/05 08:36:31;;;;;;;6.17;2.63;;;7.10;99.90;;;;;;10445444;28;20534;-77
2023/01/05 08:41:37;;;;;;;0.00;0.00;;;7.20;99.90;;;;;;10444906;28;20055;-76
2023/01/05 08:46:38;;;;;;;0.20;0.20;;;7.20;99.90;;;;;;10446234;28;20035;-77
2023/01/05 08:51:38;;;;;;;0.00;0.00;;;7.30;99.90;;;;;;10444789;28;20048;-78
2023/01/05 08:56:39;;;;;;;0.00;0.00;;;7.40;99.90;;;;;;10444813;28;20029;-78
2023/01/05 09:01:39;;;;;;;0.30;0.30;;;7.40;99.90;;;;;;10444381;28;20035;-78
2023/01/05 09:06:40;;;;;;;0.10;0.10;;;7.40;99.90;;;;;;10445268;28;20029;-77
2023/01/05 09:11:40;;;;;;;0.00;0.00;;;7.50;99.90;;;;;;10443914;28;20040;-76
2023/01/05 09:16:41;;;;;;;0.30;0.30;;;7.60;99.90;;;;;;10444259;28;20143;-76
2023/01/05 09:21:42;;;;;;;1.07;0.97;;;7.60;99.90;;;;;;10444069;28;20021;-78
2023/01/05 09:26:43;;;;;;;2.07;1.70;;;7.70;99.90;;;;;;10444225;28;20032;-76
2023/01/05 09:31:44;;;;;;;0.03;0.03;;;7.70;99.90;;;;;;10443882;28;20025;-77
2023/01/05 09:36:44;;;;;;;0.67;0.67;;;7.70;99.90;;;;;;10443473;28;20032;-76
2023/01/05 09:41:57;;;;;;;0.10;0.10;;;7.90;99.90;;;;;;10443048;28;20683;-76
2023/01/05 09:47:03;;;;;;;0.33;0.33;;;7.90;99.90;;;;;;10442741;28;20109;-77
2023/01/05 09:52:08;;;;;;;;;;;8.00;99.90;;;;;;10443230;28;20036;-79
2023/01/05 09:57:21;;;;;;;0.00;0.00;;;8.00;99.90;;;;;;10443312;28;20026;-77
2023/01/05 10:02:28;;;;;;;0.37;0.37;;;8.00;99.90;;;;;;10441102;28;20028;-76
2023/01/05 10:07:48;;;;;;;0.27;0.27;;;8.20;99.90;;;;;;10442410;28;20035;-78
2023/01/05 10:13:06;;;;;;;0.00;0.00;;;8.30;99.90;;;;;;10441746;28;20450;-76
2023/01/05 10:18:11;;;;;;;0.00;0.00;;;8.50;99.90;;;;;;10443015;28;20032;-77
2023/01/05 10:23:22;;;;;;;0.17;0.17;;;8.60;99.90;;;;;;10443016;28;20120;-77
2023/01/05 10:28:40;;;;;;;0.77;0.77;;;8.60;99.90;;;;;;10442291;28;20039;-77
2023/01/05 10:34:02;;;;;;;0.70;0.70;;;8.50;99.90;;;;;;10442146;28;20132;-76
2023/01/05 10:39:05;;;;;;;1.17;1.07;;;8.40;99.90;;;;;;10442694;28;20036;-78
2023/01/05 10:44:30;;;;;;;1.33;1.00;;;8.40;99.90;;;;;;10442422;28;20044;-76
2023/01/05 10:49:31;;;;;;;0.87;0.87;;;8.50;99.90;;;;;;10442067;28;20033;-76
2023/01/05 10:54:46;;;;;;;0.17;0.17;;;8.60;99.90;;;;;;10441878;28;20485;-77
2023/01/05 11:00:11;;;;;;;1.37;0.53;;;8.60;99.90;;;;;;10447587;28;20043;-77
2023/01/05 11:05:26;;;;;;;0.00;0.00;;;8.60;99.90;;;;;;10441985;28;20110;-76
2023/01/05 11:10:33;;;;;;;2.13;1.80;;;8.60;99.90;;;;;;10450603;28;20037;-78
2023/01/05 11:15:40;;;;;;;0.00;0.00;;;8.60;99.90;;;;;;10448644;28;20102;-76
2023/01/05 11:21:12;;;;;;;0.77;0.77;;;8.60;99.90;;;;;;10449585;28;20614;-76
2023/01/05 11:26:18;;;;;;;0.20;0.20;;;8.70;99.90;;;;;;10449355;28;20032;-77
2023/01/05 11:31:19;;;;;;;0.00;0.00;;;8.50;99.90;;;;;;10449168;28;20028;-77
2023/01/05 11:36:19;;;;;;;0.23;0.23;;;8.40;99.90;;;;;;10442238;28;20033;-77
2023/01/05 11:41:24;;;;;;;0.00;0.00;;;8.40;99.90;;;;;;10424956;28;20060;-77
2023/01/05 11:46:25;;;;;;;0.10;0.10;;;8.40;99.90;;;;;;10434344;28;20024;-77
2023/01/05 11:51:37;;;;;;;25.30;3.13;;;8.40;99.90;;;;;;10445649;28;20033;-77
2023/01/05 11:56:37;;;;;;;0.00;0.00;;;8.20;99.90;;;;;;10446037;28;20028;-78
2023/01/05 12:02:16;;;;;;;0.00;0.00;;;7.70;99.90;;;;;;10447082;28;20024;-77
2023/01/05 12:07:23;;;;;;;0.00;0.00;;;7.30;99.90;;;;;;10446152;28;20057;-78
2023/01/05 12:12:35;;;;;;;0.00;0.00;;;7.00;99.90;;;;;;10445834;28;20096;-79
2023/01/05 12:17:38;;;;;;;0.00;0.00;;;7.00;99.90;;;;;;10446111;28;20021;-78
2023/01/05 12:22:42;;;;;;;0.00;0.00;;;7.10;99.90;;;;;;10461214;22;20144;-79
2023/01/05 12:28:05;;;;;;;0.37;0.37;;;7.30;99.90;;;;;;10446004;28;20033;-77
2023/01/05 12:33:40;;;;;;;0.10;0.10;;;7.50;99.90;;;;;;10445585;28;20048;-77
2023/01/05 12:38:52;;;;;;;0.20;0.20;;;7.80;99.90;;;;;;10445701;28;20036;-79
2023/01/05 12:44:13;;;;;;;0.33;0.33;;;7.90;99.90;;;;;;10445078;28;20704;-78
2023/01/05 12:49:21;;;;;;;0.20;0.20;;;8.10;99.90;;;;;;10444818;28;20032;-77
2023/01/05 12:54:47;;;;;;;0.30;0.30;;;8.10;99.90;;;;;;10444390;28;20795;-78
2023/01/05 12:59:59;;;;;;;0.00;0.00;;;7.40;99.90;;;;;;10444134;28;20033;-80
2023/01/05 13:05:09;;;;;;;0.00;0.00;;;6.60;99.90;;;;;;10444776;28;20029;-79
2023/01/05 13:10:24;;;;;;;0.00;0.00;;;6.30;99.90;;;;;;10444204;28;20025;-80
2023/01/05 13:15:50;;;;;;;0.00;0.00;;;6.10;99.90;;;;;;10443596;28;20044;-79
2023/01/05 13:21:00;;;;;;;0.00;0.00;;;6.00;99.90;;;;;;10443917;28;20049;-78
2023/01/05 13:26:05;;;;;;;0.00;0.00;;;5.90;99.90;;;;;;10431650;28;20038;-79
2023/01/05 13:31:36;;;;;;;0.00;0.00;;;5.90;99.90;;;;;;10442891;28;20028;-79
2023/01/05 13:37:07;;;;;;;2.67;1.10;;;5.90;99.90;;;;;;10442264;28;20040;-78
2023/01/05 13:42:33;;;;;;;0.00;0.00;;;5.90;99.90;;;;;;10426031;28;20028;-78
2023/01/05 13:47:59;;;;;;;0.00;0.00;;;5.90;99.90;;;;;;10442525;28;20017;-81
2023/01/05 13:53:16;;;;;;;0.32;0.32;;;5.90;99.90;;;;;;10442335;28;20041;-78
2023/01/05 13:58:42;;;;;;;1.03;0.93;;;5.90;99.90;;;;;;10439718;28;20495;-79
2023/01/05 14:03:53;;;;;;;0.77;0.77;;;6.00;99.90;;;;;;10440042;28;20551;-79
2023/01/05 14:08:55;;;;;;;0.07;0.07;;;6.10;99.90;;;;;;10442018;28;20508;-80
2023/01/05 14:14:03;;;;;;;0.00;0.00;;;6.20;99.90;;;;;;10442066;28;20128;-79
2023/01/05 14:19:30;;;;;;;0.00;0.00;;;6.40;99.90;;;;;;10438802;28;20029;-80
2023/01/05 14:24:35;;;;;;;0.00;0.00;;;6.50;99.90;;;;;;10438205;28;20063;-83
2023/01/05 14:29:45;;;;;;;1.17;1.15;;;6.50;99.90;;;;;;10439170;28;20039;-78
2023/01/05 14:34:48;;;;;;;0.30;0.30;;;6.50;99.90;;;;;;10461807;22;20049;-78
2023/01/05 14:39:53;;;;;;;7.63;2.07;;;6.60;99.90;;;;;;10449489;28;20021;-81
2023/01/05 14:45:06;;;;;;;0.15;0.15;;;6.60;99.90;;;;;;10449226;28;20107;-79
2023/01/05 14:50:43;;;;;;;1.73;1.17;;;6.60;99.90;;;;;;10449024;28;20019;-78
2023/01/05 14:55:54;;;;;;;3.72;1.02;;;6.70;99.90;;;;;;10360887;28;20037;-79
2023/01/05 15:00:59;;;;;;;1.30;1.20;;;6.70;99.90;;;;;;10448605;28;20154;-78
2023/01/05 15:06:10;;;;;;;0.77;0.77;;;6.70;99.90;;;;;;10448996;28;20055;-79
2023/01/05 15:11:36;;;;;;;0.83;0.83;;;6.70;99.90;;;;;;10447880;28;20025;-78
2023/01/05 15:17:02;;;;;;;1.00;0.32;;;6.80;99.90;;;;;;10448361;28;20056;-79
2023/01/05 15:22:40;;;;;;;0.10;0.10;;;6.80;99.90;;;;;;10448315;28;20397;-81
2023/01/05 15:27:57;;;;;;;1.13;1.10;;;6.70;99.90;;;;;;10436798;28;20110;-79
2023/01/05 15:33:11;;;;;;;;;;;6.80;99.90;;;;;;10447171;28;20072;-81
2023/01/05 15:38:19;;;;;;;1.20;0.93;;;6.80;99.90;;;;;;10434527;28;19912;-78
2023/01/05 15:43:20;;;;;;;2.03;1.60;;;6.80;99.90;;;;;;10431956;28;20124;-79
2023/01/05 15:48:49;;;;;;;1.17;1.03;;;6.80;99.90;;;;;;10447033;28;20059;-80
2023/01/05 15:53:56;;;;;;;0.00;0.00;;;6.90;99.90;;;;;;10447195;28;20141;-76
2023/01/05 15:58:57;;;;;;;0.17;0.17;;;6.90;99.90;;;;;;10446074;28;20477;-78
2023/01/05 16:04:07;;;;;;;0.10;0.10;;;6.90;99.90;;;;;;10445935;28;20029;-80
2023/01/05 16:09:23;;;;;;;0.60;0.60;;;6.90;99.90;;;;;;10446981;28;20035;-80
2023/01/05 16:14:42;;;;;;;0.52;0.52;;;7.00;99.90;;;;;;10446852;28;20027;-79
2023/01/05 16:19:49;;;;;;;0.43;0.43;;;6.90;99.90;;;;;;10446063;28;20029;-81
2023/01/05 16:25:08;;;;;;;0.00;0.00;;;6.90;99.90;;;;;;10446120;28;20041;-79
2023/01/05 16:30:28;;;;;;;0.20;0.20;;;6.80;99.90;;;;;;10445490;28;20033;-78
2023/01/05 16:35:46;;;;;;;0.50;0.50;;;6.80;99.90;;;;;;10445116;28;20135;-79
2023/01/05 16:40:49;;;;;;;0.00;0.00;;;6.70;99.90;;;;;;10444311;28;20078;-79
2023/01/05 16:45:53;;;;;;;0.00;0.00;;;6.70;99.90;;;;;;10444352;28;20576;-79
2023/01/05 16:50:55;;;;;;;0.30;0.30;;;6.70;99.90;;;;;;10441588;28;20087;-82
2023/01/05 16:55:56;;;;;;;0.07;0.07;;;6.70;99.90;;;;;;10460673;23;20421;-79
2023/01/05 17:01:12;;;;;;;0.30;0.30;;;6.70;99.90;;;;;;10442547;28;20036;-81
2023/01/05 17:06:22;;;;;;;0.00;0.00;;;6.70;99.90;;;;;;10445612;28;20073;-80
2023/01/05 17:11:26;;;;;;;0.00;0.00;;;6.70;99.90;;;;;;10443771;28;20039;-79
2023/01/05 17:16:27;;;;;;;0.27;0.27;;;6.60;99.90;;;;;;10441704;28;20033;-78
2023/01/05 17:21:30;;;;;;;0.17;0.17;;;6.60;99.90;;;;;;10444513;28;20033;-79
2023/01/05 17:26:37;;;;;;;4.97;2.43;;;6.60;99.90;;;;;;10443031;28;20100;-79
2023/01/05 17:31:38;;;;;;;0.00;0.00;;;6.60;99.90;;;;;;10441819;28;20045;-81
2023/01/05 17:36:39;;;;;;;3.40;2.77;;;6.60;99.90;;;;;;10442131;28;20033;-79
2023/01/05 17:41:40;;;;;;;0.10;0.10;;;6.50;99.90;;;;;;10443256;28;20021;-78
2023/01/05 17:46:43;;;;;;;9.27;1.53;;;6.50;99.90;;;;;;10440291;28;20029;-79
2023/01/05 17:51:44;;;;;;;0.00;0.00;;;6.50;99.90;;;;;;10441830;28;20060;-81
2023/01/05 17:56:45;;;;;;;0.20;0.20;;;6.50;99.90;;;;;;10433758;28;20131;-79
2023/01/05 18:01:45;;;;;;;0.77;0.77;;;6.50;99.90;;;;;;10440896;28;20423;-78
2023/01/05 18:06:46;;;;;;;0.43;0.43;;;6.50;99.90;;;;;;10441014;28;20036;-79
2023/01/05 18:11:47;;;;;;;3.00;2.77;;;6.50;99.90;;;;;;10441548;28;20037;-78
2023/01/05 18:16:48;;;;;;;1.20;0.97;;;6.50;99.90;;;;;;10440841;28;20039;-79
2023/01/05 18:21:48;;;;;;;0.00;0.00;;;6.50;99.90;;;;;;10442235;28;20303;-77
2023/01/05 18:26:49;;;;;;;0.20;0.20;;;6.50;99.90;;;;;;10441676;28;20075;-78
2023/01/05 18:31:51;;;;;;;4.43;2.77;;;6.50;99.90;;;;;;10439152;28;20073;-77
2023/01/05 18:36:51;;;;;;;14.10;4.40;;;6.50;99.90;;;;;;10440564;28;20063;-78
2023/01/05 18:41:53;;;;;;;16.53;5.17;;;6.50;99.90;;;;;;10436221;28;20041;-78
2023/01/05 18:46:54;;;;;;;10.90;4.53;;;6.40;99.90;;;;;;10440609;28;20473;-78
2023/01/05 18:51:54;;;;;;;7.10;3.33;;;6.30;99.90;;;;;;10441211;28;20045;-80
2023/01/05 18:56:55;;;;;;;15.53;4.30;;;6.30;99.90;;;;;;10439033;28;20492;-78
2023/01/05 19:01:55;;;;;;;6.93;2.60;;;6.20;99.90;;;;;;10440479;28;20558;-81
2023/01/05 19:06:56;;;;;;;10.90;3.50;;;6.10;99.90;;;;;;10428949;28;20485;-80
2023/01/05 19:11:57;;;;;;;20.83;6.60;;;6.00;99.90;;;;;;10441128;28;20056;-77
2023/01/05 19:16:57;;;;;;;13.27;3.60;;;5.90;99.90;;;;;;10432027;28;20397;-79
2023/01/05 19:21:58;;;;;;;7.87;2.47;;;5.90;99.90;;;;;;10444123;28;20064;-78
2023/01/05 19:26:58;;;;;;;10.57;3.87;;;5.90;99.90;;;;;;10447277;28;20354;-79
2023/01/05 19:31:59;;;;;;;8.50;4.00;;;5.80;99.90;;;;;;10446213;28;20171;-78
2023/01/05 19:37:02;;;;;;;9.97;3.10;;;5.80;99.90;;;;;;10446973;28;20707;-77
2023/01/05 19:42:02;;;;;;;6.23;2.40;;;5.70;99.90;;;;;;10446259;28;20388;-80
2023/01/05 19:47:03;;;;;;;6.13;2.73;;;5.70;99.90;;;;;;10445668;28;20025;-79
2023/01/05 19:52:03;;;;;;;9.30;3.63;;;5.60;99.90;;;;;;10446046;28;20408;-83
2023/01/05 19:57:04;;;;;;;8.07;2.97;;;5.40;99.90;;;;;;10445461;28;20060;-81
2023/01/05 20:02:05;;;;;;;4.83;2.43;;;5.20;99.90;;;;;;10442997;28;20037;-83
2023/01/05 20:07:09;;;;;;;5.47;2.53;;;5.10;99.90;;;;;;10444925;28;20033;-81
2023/01/05 20:12:09;;;;;;;4.83;2.40;;;5.00;99.90;;;;;;10446765;28;20767;-79
2023/01/05 20:17:11;;;;;;;10.23;3.57;;;5.00;99.90;;;;;;10444383;28;20068;-80
2023/01/05 20:22:12;;;;;;;7.60;3.60;;;5.00;99.90;;;;;;10445682;28;20033;-79
2023/01/05 20:27:14;;;;;;;9.33;3.20;;;4.90;99.90;;;;;;10443361;28;20021;-80
2023/01/05 20:32:18;;;;;;;7.03;3.43;;;4.90;99.90;;;;;;10460265;22;20160;-83
2023/01/05 20:37:19;;;;;;;7.73;3.20;;;4.80;99.90;;;;;;10445337;28;20025;-82
2023/01/05 20:42:20;;;;;;;7.27;3.00;;;4.80;99.90;;;;;;10453243;28;20292;-84
2023/01/05 20:47:21;;;;;;;7.63;2.93;;;4.80;99.90;;;;;;10447051;28;20116;-79
2023/01/05 20:52:21;;;;;;;7.73;3.33;;;4.80;99.90;;;;;;10444479;28;20043;-80
2023/01/05 20:57:22;;;;;;;6.57;2.90;;;4.80;99.90;;;;;;10459177;28;20063;-79
2023/01/05 21:02:24;;;;;;;6.20;2.60;;;4.80;99.90;;;;;;10440948;28;20469;-79
2023/01/05 21:07:24;;;;;;;7.67;2.70;;;4.70;99.90;;;;;;10432677;28;20028;-78
2023/01/05 21:12:25;;;;;;;4.23;2.20;;;4.70;99.90;;;;;;10444255;28;20035;-82
2023/01/05 21:17:26;;;;;;;5.77;2.50;;;4.70;99.90;;;;;;10441742;28;20036;-81
2023/01/05 21:22:26;;;;;;;6.07;3.33;;;4.70;99.90;;;;;;10442591;28;20029;-77
2023/01/05 21:27:27;;;;;;;5.47;2.27;;;4.70;99.90;;;;;;10429848;28;20039;-79
2023/01/05 21:32:27;;;;;;;5.17;1.90;;;4.60;99.90;;;;;;10441975;28;20551;-78
2023/01/05 21:37:30;;;;;;;9.73;2.23;;;4.60;99.90;;;;;;10443737;28;20103;-80
2023/01/05 21:42:41;;;;;;;7.87;2.37;;;4.50;99.90;;;;;;10440932;28;20029;-79
2023/01/05 21:47:41;;;;;;;3.07;1.80;;;4.50;99.90;;;;;;10441846;28;20025;-79
2023/01/05 21:58:02;;;;;;;7.43;2.10;;;4.50;99.90;;;;;;10441879;28;20029;-79
2023/01/05 22:03:02;;;;;;;8.23;2.30;;;4.50;99.90;;;;;;10442231;28;20400;-82
2023/01/05 22:08:03;;;;;;;4.13;2.30;;;4.40;99.90;;;;;;10442223;28;20041;-78
2023/01/05 22:13:04;;;;;;;4.97;2.27;;;4.30;99.90;;;;;;10429019;28;20037;-77
2023/01/05 22:18:05;;;;;;;4.97;2.13;;;4.30;99.90;;;;;;10442016;28;20097;-80
2023/01/05 22:23:06;;;;;;;11.40;2.87;;;4.30;99.90;;;;;;10441605;28;20086;-78
2023/01/05 22:28:07;;;;;;;3.77;1.63;;;4.30;99.90;;;;;;10441086;28;20090;-78
2023/01/05 22:33:07;;;;;;;4.43;2.23;;;4.40;99.90;;;;;;10440914;28;20063;-79
2023/01/05 22:38:08;;;;;;;4.73;2.20;;;4.40;99.90;;;;;;10441539;28;20044;-78
2023/01/05 22:43:09;;;;;;;6.83;2.37;;;4.40;99.90;;;;;;10440263;28;20033;-78
2023/01/05 22:48:09;;;;;;;7.57;2.27;;;4.40;99.90;;;;;;10440607;28;20396;-81
2023/01/05 22:53:10;;;;;;;4.20;2.40;;;4.40;99.90;;;;;;10442178;28;20472;-77
2023/01/05 22:58:11;;;;;;;4.67;2.23;;;4.40;99.90;;;;;;10449264;28;20040;-78
2023/01/05 23:03:12;;;;;;;2.63;1.90;;;4.40;99.90;;;;;;10448765;28;20496;-78
2023/01/05 23:08:12;;;;;;;8.97;2.87;;;4.40;99.90;;;;;;10448182;28;20040;-80
2023/01/05 23:13:13;;;;;;;7.57;3.13;;;4.30;99.90;;;;;;10448674;28;20586;-81
2023/01/05 23:18:13;;;;;;;5.30;2.43;;;4.30;99.90;;;;;;10449012;28;20106;-78
2023/01/05 23:23:14;;;;;;;2.97;1.70;;;4.30;99.90;;;;;;10463576;22;20061;-79
2023/01/05 23:28:17;;;;;;;3.20;2.03;;;4.20;99.90;;;;;;10448674;28;20040;-78
2023/01/05 23:33:20;;;;;;;6.40;2.17;;;4.10;99.90;;;;;;10452766;28;20479;-80
2023/01/05 23:38:22;;;;;;;4.00;1.63;;;4.10;99.90;;;;;;10447270;28;20037;-78
2023/01/05 23:43:25;;;;;;;3.47;1.60;;;4.10;99.90;;;;;;10447529;28;20028;-80
2023/01/05 23:48:26;;;;;;;2.70;1.50;;;4.10;99.90;;;;;;10447770;28;20496;-81
2023/01/05 23:53:26;;;;;;;4.50;2.00;;;4.00;99.90;;;;;;10447092;28;20106;-78
2023/01/05 23:58:27;;;;;;;3.03;2.27;;;4.00;99.90;;;;;;10442891;28;20041;-78
